Open Full Screen Window  High Contrast Mode
August 31, 2016 2:00 AM EDT
Weather Information
Wind Direction
  ---
Wind Speed
  00 kt (0 mph)
Wind Gust
  00 kt (0 mph)
Altimeter
30.06 in
Visibility
10 SM
Temperature
22° C
72° F
Dewpoint
21° C
70° F
Humidity
94%
1hr Rain Fall
00.00 in.
24hr Rain Fall
00.00 in.
Sky Condition
Clear
VFR

METAR KI69 310600Z AUTO 00000KT 10SM CLR 22/21 A3006 RMK AO2 T02150206

*Background is not an actual portrayal of the airport.